Time;durP1;ratioP1;P1;durP2;ratioP2;P2;SDS_P1;SDS_P2;PMS_P1;PMS_P2;Temp;Humidity;BMP_temperature;BMP_pressure;BME280_temperature;BME280_humidity;BME280_pressure;Samples;Min_cycle;Max_cycle;Signal;HPM_P1;HPM_P2
2022/01/20 00:00:12;;;;;;;22.85;6.50;;;24.10;62.80;;;;;;4999342;28;20021;-67
2022/01/20 00:02:39;;;;;;;22.25;6.30;;;24.10;62.80;;;;;;4997388;28;20092;-68
2022/01/20 00:08:54;;;;;;;15.25;6.97;;;24.10;62.80;;;;;;4996806;28;20469;-68
2022/01/20 00:27:10;;;;;;;22.90;7.77;;;23.90;63.10;;;;;;5000406;28;20704;-71
2022/01/20 00:33:16;;;;;;;22.08;6.65;;;23.90;63.20;;;;;;4996671;28;20077;-68
2022/01/20 00:37:40;;;;;;;30.38;7.60;;;23.80;63.00;;;;;;5000228;28;20496;-67
2022/01/20 00:40:07;;;;;;;25.92;7.97;;;23.80;63.00;;;;;;4995297;28;20026;-67
2022/01/20 00:42:33;;;;;;;18.23;6.18;;;23.70;63.00;;;;;;5001487;28;20116;-67
2022/01/20 00:45:01;;;;;;;22.42;7.28;;;23.70;62.80;;;;;;4998106;28;20022;-68
2022/01/20 00:47:27;;;;;;;22.10;7.78;;;23.80;62.80;;;;;;5000311;28;20116;-68
2022/01/20 00:49:54;;;;;;;21.42;7.47;;;23.70;62.80;;;;;;5028104;28;20185;-67
2022/01/20 00:52:21;;;;;;;20.70;7.05;;;23.70;62.70;;;;;;4999464;28;20048;-67
2022/01/20 00:54:47;;;;;;;19.48;7.25;;;23.70;62.70;;;;;;5000662;28;20144;-79
2022/01/20 00:57:15;;;;;;;24.10;6.70;;;23.70;62.70;;;;;;4998799;28;21529;-67
2022/01/20 00:59:41;;;;;;;21.55;7.57;;;23.60;62.60;;;;;;4994314;28;20026;-72
2022/01/20 01:02:10;;;;;;;18.60;5.93;;;23.60;62.40;;;;;;4995658;28;20485;-68
2022/01/20 01:04:39;;;;;;;17.10;5.78;;;23.60;62.30;;;;;;5017928;28;20021;-68
2022/01/20 01:07:43;;;;;;;15.95;5.97;;;23.60;62.20;;;;;;4996295;28;20045;-67
2022/01/20 01:10:12;;;;;;;22.98;6.70;;;23.60;62.00;;;;;;4997701;28;20030;-71
2022/01/20 01:12:51;;;;;;;28.42;7.15;;;23.50;61.90;;;;;;4997357;28;20485;-73
2022/01/20 01:15:27;;;;;;;25.75;6.97;;;23.50;61.80;;;;;;5000990;28;20121;-67
2022/01/20 01:23:36;;;;;;;19.50;5.88;;;23.50;61.30;;;;;;4997023;28;20037;-67
2022/01/20 01:26:05;;;;;;;16.05;5.40;;;23.40;61.10;;;;;;5000273;28;20053;-68
2022/01/20 01:28:32;;;;;;;21.35;6.30;;;23.40;60.90;;;;;;4997427;28;20026;-69
2022/01/20 01:33:36;;;;;;;17.42;5.68;;;23.40;60.70;;;;;;5016739;28;20038;-67
2022/01/20 01:36:04;;;;;;;14.68;5.88;;;23.40;60.60;;;;;;4996864;28;20030;-68
2022/01/20 01:38:38;;;;;;;23.77;5.90;;;23.40;60.50;;;;;;4993142;28;20022;-72
2022/01/20 01:41:08;;;;;;;26.20;5.13;;;23.30;60.40;;;;;;4999003;28;20065;-68
2022/01/20 01:43:37;;;;;;;26.55;6.22;;;23.30;60.70;;;;;;4997735;28;20046;-67
2022/01/20 01:46:04;;;;;;;20.27;7.20;;;23.30;60.50;;;;;;4995986;28;20474;-77
2022/01/20 01:48:31;;;;;;;32.22;14.90;;;23.20;60.30;;;;;;4997635;28;20030;-68
2022/01/20 01:51:01;;;;;;;44.13;17.98;;;23.20;60.20;;;;;;5015046;28;20034;-67
2022/01/20 01:53:28;;;;;;;39.05;13.98;;;23.20;60.20;;;;;;4999370;28;20015;-68
2022/01/20 01:55:55;;;;;;;24.95;11.52;;;23.20;60.30;;;;;;5000479;28;20030;-67
2022/01/20 01:58:22;;;;;;;20.48;8.75;;;23.20;60.40;;;;;;4999432;28;20372;-69
2022/01/20 02:00:49;;;;;;;23.90;8.13;;;23.10;60.30;;;;;;5001877;28;20023;-68
2022/01/20 02:03:16;;;;;;;17.02;5.75;;;23.20;60.30;;;;;;4996959;28;20116;-78
2022/01/20 02:08:38;;;;;;;18.58;5.18;;;23.10;60.40;;;;;;4998012;28;20116;-68
2022/01/20 02:19:23;;;;;;;19.17;6.20;;;23.00;60.50;;;;;;5001354;28;20064;-68
2022/01/20 02:21:56;;;;;;;20.08;6.03;;;23.00;60.50;;;;;;5003612;28;20084;-68
2022/01/20 02:24:23;;;;;;;14.50;5.53;;;23.00;60.50;;;;;;5002751;28;20528;-74
2022/01/20 02:26:50;;;;;;;22.77;6.22;;;23.00;60.50;;;;;;4997166;28;20391;-68
2022/01/20 02:29:17;;;;;;;22.20;6.10;;;23.00;60.60;;;;;;5001428;28;20030;-72
2022/01/20 02:31:44;;;;;;;20.08;6.93;;;22.90;60.60;;;;;;5004221;28;20026;-69
2022/01/20 02:34:13;;;;;;;30.30;7.03;;;22.90;61.50;;;;;;5000316;28;20022;-68
2022/01/20 02:36:44;;;;;;;14.75;5.45;;;22.90;60.90;;;;;;4997402;28;20582;-67
2022/01/20 02:39:28;;;;;;;34.60;7.60;;;22.90;61.20;;;;;;5000734;28;20030;-67
2022/01/20 02:44:54;;;;;;;30.15;9.02;;;22.90;61.70;;;;;;4998636;28;20046;-68
2022/01/20 02:47:30;;;;;;;28.10;6.90;;;22.90;61.90;;;;;;4995368;28;20420;-67
2022/01/20 02:49:56;;;;;;;26.27;7.70;;;22.90;62.20;;;;;;4999855;28;20034;-69
2022/01/20 02:52:27;;;;;;;25.73;7.18;;;22.80;62.30;;;;;;4998813;28;20571;-69
2022/01/20 02:54:54;;;;;;;29.88;8.70;;;22.80;62.40;;;;;;4999709;28;20560;-67
2022/01/20 02:57:21;;;;;;;21.08;6.88;;;22.80;62.60;;;;;;5001693;28;20037;-67
2022/01/20 02:59:48;;;;;;;24.75;7.85;;;22.80;62.70;;;;;;4997012;28;20033;-67
2022/01/20 03:02:14;;;;;;;24.42;8.38;;;22.80;62.70;;;;;;5002609;28;20046;-67
2022/01/20 03:04:41;;;;;;;19.58;6.95;;;22.70;62.80;;;;;;4997233;28;20015;-68
2022/01/20 03:07:08;;;;;;;29.50;6.57;;;22.70;62.80;;;;;;5000391;28;20030;-68
2022/01/20 03:09:35;;;;;;;44.67;8.07;;;22.70;63.00;;;;;;4998704;28;20461;-68
2022/01/20 03:12:02;;;;;;;35.88;7.90;;;22.70;63.20;;;;;;5005228;28;20018;-68
2022/01/20 03:14:29;;;;;;;31.15;9.27;;;22.70;63.20;;;;;;4999325;28;20438;-70
2022/01/20 03:16:57;;;;;;;64.43;10.52;;;22.70;63.10;;;;;;5013058;28;20390;-72
2022/01/20 03:19:23;;;;;;;49.33;9.13;;;22.70;63.40;;;;;;5001536;28;20084;-68
2022/01/20 03:21:50;;;;;;;32.45;8.18;;;22.60;63.50;;;;;;4998266;28;20061;-68
2022/01/20 03:24:16;;;;;;;33.60;7.43;;;22.60;63.50;;;;;;5005132;28;20481;-70
2022/01/20 03:26:43;;;;;;;33.17;6.72;;;22.60;63.20;;;;;;5000387;28;20030;-70
2022/01/20 03:29:12;;;;;;;28.73;8.32;;;22.60;63.00;;;;;;5003403;28;20404;-68
2022/01/20 03:31:39;;;;;;;34.15;8.50;;;22.60;62.80;;;;;;4998939;28;20037;-73
2022/01/20 03:34:06;;;;;;;22.50;6.85;;;22.60;62.70;;;;;;5004115;28;20430;-68
2022/01/20 03:36:33;;;;;;;25.92;7.05;;;22.50;62.70;;;;;;4998142;28;20026;-75
2022/01/20 03:39:00;;;;;;;25.23;7.35;;;22.50;62.80;;;;;;5033098;28;20456;-75
2022/01/20 03:41:27;;;;;;;31.15;8.02;;;22.50;62.90;;;;;;4994278;28;20030;-72
2022/01/20 03:43:54;;;;;;;32.28;8.82;;;22.50;62.80;;;;;;4996373;28;20033;-74
2022/01/20 03:46:22;;;;;;;41.60;8.90;;;22.40;62.80;;;;;;5003624;28;20034;-67
2022/01/20 03:48:54;;;;;;;24.60;7.90;;;22.40;62.90;;;;;;5001126;28;20478;-76
2022/01/20 03:51:26;;;;;;;29.48;9.32;;;22.40;62.70;;;;;;4993057;28;20113;-70
2022/01/20 03:53:55;;;;;;;21.92;7.75;;;22.30;62.70;;;;;;5000202;28;20022;-69
2022/01/20 03:56:22;;;;;;;24.48;6.80;;;22.00;63.70;;;;;;5000923;28;20029;-68
2022/01/20 03:58:50;;;;;;;24.52;6.85;;;21.70;64.60;;;;;;4997758;28;20025;-71
2022/01/20 04:01:17;;;;;;;46.97;9.25;;;21.50;65.50;;;;;;4998511;28;20024;-68
2022/01/20 04:03:44;;;;;;;73.68;22.60;;;21.20;66.90;;;;;;5004294;28;20084;-72
2022/01/20 04:06:12;;;;;;;90.47;45.67;;;21.20;67.20;;;;;;4998417;28;20048;-71
2022/01/20 04:08:45;;;;;;;127.32;59.85;;;21.30;67.00;;;;;;4997560;28;20027;-73
2022/01/20 04:11:21;;;;;;;100.95;46.83;;;21.40;66.40;;;;;;5000015;28;20026;-79
2022/01/20 04:13:48;;;;;;;309.77;37.63;;;21.60;66.00;;;;;;4999501;28;20156;-73
2022/01/20 04:16:24;;;;;;;252.25;34.50;;;21.70;65.30;;;;;;4996830;28;20026;-73
2022/01/20 04:18:55;;;;;;;116.07;22.95;;;21.80;64.90;;;;;;4993112;28;20022;-70
2022/01/20 04:21:25;;;;;;;96.65;22.42;;;21.80;64.50;;;;;;4999605;28;20041;-68
2022/01/20 04:23:53;;;;;;;45.50;16.33;;;21.80;64.00;;;;;;5001696;28;20020;-71
2022/01/20 04:26:30;;;;;;;28.55;11.02;;;21.90;63.60;;;;;;4991737;28;20030;-77
2022/01/20 04:29:00;;;;;;;46.72;10.77;;;21.90;63.30;;;;;;5000919;28;20034;-76
2022/01/20 04:31:30;;;;;;;83.72;13.35;;;21.90;63.20;;;;;;4986923;28;20161;-76
2022/01/20 04:33:57;;;;;;;55.10;10.82;;;21.90;63.20;;;;;;4988075;28;20393;-70
2022/01/20 04:36:30;;;;;;;36.97;7.90;;;21.90;64.00;;;;;;4985595;28;20022;-74
2022/01/20 04:39:31;;;;;;;34.75;7.88;;;21.90;63.80;;;;;;4985023;28;20062;-74
2022/01/20 04:42:46;;;;;;;25.25;6.95;;;22.00;63.70;;;;;;4988929;28;20023;-71
2022/01/20 04:45:17;;;;;;;44.45;8.43;;;22.00;64.50;;;;;;5003212;28;20034;-71
2022/01/20 04:48:02;;;;;;;38.88;9.25;;;22.00;63.90;;;;;;4990606;28;20050;-71
2022/01/20 04:58:48;;;;;;;32.47;7.43;;;22.00;63.90;;;;;;4987536;28;20494;-68
2022/01/20 05:01:15;;;;;;;36.42;8.15;;;22.10;64.00;;;;;;4987575;28;20023;-68
2022/01/20 05:03:43;;;;;;;34.38;9.63;;;22.10;64.30;;;;;;4987727;28;20046;-69
2022/01/20 05:06:40;;;;;;;27.55;7.78;;;22.10;64.80;;;;;;4985074;28;20039;-68
2022/01/20 05:09:07;;;;;;;21.00;6.95;;;22.10;65.00;;;;;;4996761;28;20564;-68
2022/01/20 05:11:36;;;;;;;23.50;7.53;;;22.10;65.10;;;;;;4991268;28;20022;-70
2022/01/20 05:14:03;;;;;;;35.58;8.48;;;22.10;65.20;;;;;;4986025;28;20471;-70
2022/01/20 05:16:29;;;;;;;32.15;8.05;;;22.10;65.50;;;;;;4989893;28;20029;-69
2022/01/20 05:18:55;;;;;;;31.77;9.05;;;22.10;65.90;;;;;;4984764;28;20029;-70
2022/01/20 05:21:22;;;;;;;31.83;9.05;;;22.10;66.20;;;;;;4989969;28;20017;-72
2022/01/20 05:23:48;;;;;;;46.15;9.60;;;22.20;66.40;;;;;;4984133;28;20015;-69
2022/01/20 05:26:15;;;;;;;29.60;8.27;;;22.20;66.30;;;;;;4989589;28;20949;-70
2022/01/20 05:28:41;;;;;;;35.53;9.32;;;22.20;66.20;;;;;;4988414;28;20027;-70
2022/01/20 05:31:08;;;;;;;26.75;7.78;;;22.20;66.20;;;;;;4987953;28;20026;-70
2022/01/20 05:33:34;;;;;;;40.55;10.07;;;22.20;66.20;;;;;;4985176;28;20110;-69
2022/01/20 05:36:02;;;;;;;35.08;8.07;;;22.20;66.30;;;;;;4985774;28;20046;-70
2022/01/20 05:38:28;;;;;;;50.20;9.32;;;22.20;66.30;;;;;;4989642;28;20390;-69
2022/01/20 05:40:55;;;;;;;42.60;8.90;;;22.20;66.50;;;;;;4984735;28;20030;-70
2022/01/20 05:43:21;;;;;;;30.33;8.10;;;22.20;66.90;;;;;;4988569;28;20029;-70
2022/01/20 05:45:48;;;;;;;59.88;9.68;;;22.30;67.10;;;;;;4987443;28;20023;-70
2022/01/20 05:48:17;;;;;;;56.50;10.27;;;22.30;67.30;;;;;;4990898;28;20038;-70
2022/01/20 05:50:46;;;;;;;51.78;9.23;;;22.30;67.50;;;;;;4988878;28;20022;-70
2022/01/20 05:53:13;;;;;;;37.83;7.78;;;22.40;67.30;;;;;;4998301;28;20026;-70
2022/01/20 05:55:40;;;;;;;29.35;7.57;;;22.40;67.20;;;;;;4997407;28;20026;-70
2022/01/20 05:58:07;;;;;;;55.95;11.27;;;22.40;67.00;;;;;;5011104;28;20470;-70
2022/01/20 06:00:36;;;;;;;63.75;10.18;;;22.40;66.80;;;;;;5003036;28;20014;-70
2022/01/20 06:05:48;;;;;;;48.03;9.15;;;22.50;67.10;;;;;;4996459;28;20049;-71
2022/01/20 06:08:15;;;;;;;43.47;9.63;;;22.50;66.80;;;;;;4999783;28;20042;-73
2022/01/20 06:10:41;;;;;;;29.17;7.30;;;22.50;66.70;;;;;;4993136;28;20093;-71
2022/01/20 06:13:08;;;;;;;34.50;8.00;;;22.60;66.60;;;;;;4997730;28;20037;-70
2022/01/20 06:15:34;;;;;;;23.48;7.70;;;22.60;66.40;;;;;;4996093;28;20041;-70
2022/01/20 06:18:01;;;;;;;20.88;8.25;;;22.60;66.20;;;;;;5001408;28;20022;-70
2022/01/20 06:20:29;;;;;;;26.02;8.93;;;22.70;66.10;;;;;;5000381;28;20050;-69
2022/01/20 06:22:56;;;;;;;36.80;9.52;;;22.70;66.00;;;;;;4990612;28;20101;-70
2022/01/20 06:25:22;;;;;;;21.13;6.80;;;22.70;65.90;;;;;;4997213;28;20022;-69
2022/01/20 06:27:49;;;;;;;31.63;8.82;;;22.80;66.00;;;;;;4997644;28;20480;-69
2022/01/20 06:30:16;;;;;;;29.60;10.05;;;22.80;66.10;;;;;;4999187;28;20038;-71
2022/01/20 06:32:43;;;;;;;30.90;7.47;;;22.90;66.20;;;;;;4989133;28;20015;-70
2022/01/20 06:35:10;;;;;;;25.45;9.38;;;22.90;66.20;;;;;;5001280;28;20029;-70
2022/01/20 06:37:36;;;;;;;30.23;9.05;;;22.90;66.10;;;;;;5001535;28;20540;-70
2022/01/20 06:40:06;;;;;;;22.10;9.10;;;23.00;66.10;;;;;;4997994;28;20026;-69
2022/01/20 06:42:32;;;;;;;28.38;8.63;;;23.00;66.50;;;;;;5003060;28;20050;-69
2022/01/20 06:44:59;;;;;;;27.52;8.85;;;23.10;65.80;;;;;;5001091;28;20026;-72
2022/01/20 06:47:25;;;;;;;22.45;7.03;;;23.10;65.70;;;;;;5005236;28;20358;-70
2022/01/20 06:49:52;;;;;;;23.08;8.07;;;23.20;65.50;;;;;;4999809;28;20030;-71
2022/01/20 06:52:18;;;;;;;30.63;8.07;;;23.20;65.20;;;;;;5003756;28;20440;-72
2022/01/20 06:54:44;;;;;;;22.52;7.75;;;23.20;65.00;;;;;;4999378;28;20513;-71
2022/01/20 06:57:11;;;;;;;24.60;7.43;;;23.30;64.80;;;;;;5000694;28;20018;-72
2022/01/20 06:59:37;;;;;;;23.17;7.47;;;23.30;64.60;;;;;;5005327;28;20033;-72
2022/01/20 07:02:04;;;;;;;19.35;7.47;;;23.40;64.20;;;;;;5001403;28;20568;-70
2022/01/20 07:04:32;;;;;;;24.15;6.88;;;23.40;63.80;;;;;;5002994;28;20053;-75
2022/01/20 07:06:59;;;;;;;22.65;9.05;;;23.50;63.60;;;;;;5000702;28;20046;-70
2022/01/20 07:09:25;;;;;;;22.83;6.68;;;23.50;63.50;;;;;;5000780;28;20042;-72
2022/01/20 07:11:52;;;;;;;22.13;7.40;;;23.50;63.30;;;;;;5003895;28;20032;-70
2022/01/20 07:14:18;;;;;;;28.40;8.13;;;23.50;63.40;;;;;;4997609;28;20108;-70
2022/01/20 07:16:47;;;;;;;23.17;7.68;;;23.60;63.60;;;;;;4998367;28;20026;-73
2022/01/20 07:19:15;;;;;;;21.92;6.18;;;23.70;63.50;;;;;;5000530;28;20015;-72
2022/01/20 07:21:42;;;;;;;20.98;6.85;;;23.70;63.30;;;;;;5001160;28;20025;-78
2022/01/20 07:24:08;;;;;;;23.13;7.28;;;23.70;63.10;;;;;;4997785;28;20492;-74
2022/01/20 07:26:35;;;;;;;25.38;7.05;;;23.80;62.90;;;;;;4999699;28;20065;-71
2022/01/20 07:29:02;;;;;;;27.33;7.85;;;23.80;62.50;;;;;;5034915;28;20379;-69
2022/01/20 07:31:29;;;;;;;42.47;8.98;;;23.90;62.60;;;;;;4999527;28;20144;-72
2022/01/20 07:33:55;;;;;;;31.88;7.68;;;23.90;62.60;;;;;;4998407;28;20041;-75
2022/01/20 07:36:22;;;;;;;17.00;7.25;;;24.00;62.60;;;;;;4999870;28;20488;-70
2022/01/20 07:38:48;;;;;;;24.13;8.48;;;24.10;62.30;;;;;;5004931;28;20041;-70
2022/01/20 07:41:15;;;;;;;18.88;7.20;;;24.10;61.90;;;;;;4999779;28;20408;-70
2022/01/20 07:43:42;;;;;;;28.45;8.80;;;24.10;61.70;;;;;;4999429;28;20030;-71
2022/01/20 07:46:09;;;;;;;33.28;9.20;;;24.10;61.50;;;;;;4998875;28;20034;-74
2022/01/20 07:48:36;;;;;;;33.08;9.88;;;24.20;61.60;;;;;;5000141;28;20053;-72
2022/01/20 07:51:05;;;;;;;23.55;7.88;;;24.20;61.80;;;;;;4999175;28;20020;-73
2022/01/20 07:53:34;;;;;;;21.42;7.82;;;24.30;62.20;;;;;;4995692;28;20026;-70
2022/01/20 07:56:01;;;;;;;17.83;8.45;;;24.30;62.30;;;;;;5000400;28;20497;-70
2022/01/20 07:58:27;;;;;;;37.38;8.23;;;24.40;61.90;;;;;;4999944;28;20026;-68
2022/01/20 08:00:54;;;;;;;21.50;7.90;;;24.40;61.80;;;;;;4999539;28;20023;-68
2022/01/20 08:03:20;;;;;;;27.48;7.45;;;24.50;61.70;;;;;;4997140;28;20046;-75
2022/01/20 08:05:47;;;;;;;21.60;5.80;;;24.50;61.70;;;;;;5000737;28;20023;-70
2022/01/20 08:08:13;;;;;;;23.63;7.25;;;24.60;61.70;;;;;;5002792;28;20045;-70
2022/01/20 08:10:40;;;;;;;17.20;5.35;;;24.60;61.70;;;;;;4997731;28;20023;-70
2022/01/20 08:13:06;;;;;;;17.33;6.68;;;24.70;61.90;;;;;;4998289;28;20058;-68
2022/01/20 08:15:33;;;;;;;21.45;6.10;;;24.80;62.10;;;;;;4996334;28;20030;-70
2022/01/20 08:17:59;;;;;;;40.40;8.52;;;24.80;61.90;;;;;;4997958;28;20065;-70
2022/01/20 08:20:26;;;;;;;31.65;6.85;;;24.90;61.90;;;;;;4998268;28;20019;-69
2022/01/20 08:22:52;;;;;;;22.30;6.13;;;25.00;61.90;;;;;;5001585;28;20025;-69
2022/01/20 08:25:20;;;;;;;29.73;6.55;;;25.00;61.90;;;;;;4999280;28;20072;-71
2022/01/20 08:27:47;;;;;;;39.97;7.22;;;25.10;61.80;;;;;;4999730;28;20042;-70
2022/01/20 08:30:17;;;;;;;22.48;5.45;;;25.20;61.60;;;;;;4998140;28;20030;-69
2022/01/20 08:32:44;;;;;;;33.97;6.25;;;25.20;61.30;;;;;;5000174;28;20040;-73
2022/01/20 08:35:11;;;;;;;26.52;6.82;;;25.30;61.20;;;;;;5001854;28;20030;-72
2022/01/20 08:37:40;;;;;;;19.83;5.50;;;25.40;61.30;;;;;;4999761;28;20025;-71
2022/01/20 08:40:11;;;;;;;16.75;5.90;;;25.40;61.40;;;;;;4997841;28;20034;-71
2022/01/20 08:42:38;;;;;;;14.77;4.45;;;25.50;61.50;;;;;;4997848;28;20471;-69
2022/01/20 08:45:07;;;;;;;16.58;4.70;;;25.50;61.30;;;;;;5000353;28;20026;-71
2022/01/20 08:47:33;;;;;;;17.77;5.30;;;25.60;61.10;;;;;;4997920;28;20512;-69
2022/01/20 08:50:00;;;;;;;12.50;5.38;;;25.60;61.40;;;;;;4995287;28;20075;-69
2022/01/20 08:52:28;;;;;;;18.58;5.72;;;25.70;61.40;;;;;;4999410;28;20022;-71
2022/01/20 08:54:58;;;;;;;13.35;4.72;;;25.70;61.60;;;;;;5017589;28;20014;-70
2022/01/20 08:57:25;;;;;;;16.15;5.40;;;25.80;61.70;;;;;;4994009;28;20030;-71
2022/01/20 08:59:52;;;;;;;17.92;5.82;;;25.80;61.60;;;;;;4999111;28;20112;-72
2022/01/20 09:02:20;;;;;;;15.93;5.10;;;25.80;61.60;;;;;;5003285;28;20663;-69
2022/01/20 09:04:47;;;;;;;19.15;5.05;;;25.90;61.20;;;;;;5003794;28;20019;-72
2022/01/20 09:07:14;;;;;;;14.73;5.40;;;26.00;61.00;;;;;;4997632;28;20026;-71
2022/01/20 09:09:46;;;;;;;19.58;5.82;;;26.10;61.10;;;;;;4997946;28;20537;-69
2022/01/20 09:15:45;;;;;;;15.73;4.85;;;26.20;60.90;;;;;;4970711;28;20084;-70
2022/01/20 09:18:51;;;;;;;15.85;4.22;;;26.20;60.80;;;;;;5001797;28;20033;-71
2022/01/20 09:21:57;;;;;;;23.02;5.95;;;26.30;61.10;;;;;;4996333;28;20112;-69
2022/01/20 09:24:26;;;;;;;19.63;6.75;;;26.40;61.20;;;;;;4997569;28;20034;-70
2022/01/20 09:26:53;;;;;;;15.15;5.20;;;26.40;61.10;;;;;;4999233;28;20069;-70
2022/01/20 09:29:19;;;;;;;18.42;7.47;;;26.50;61.20;;;;;;5003013;28;20022;-70
2022/01/20 09:31:46;;;;;;;22.17;6.32;;;26.60;61.10;;;;;;4999894;28;20052;-78
2022/01/20 09:34:12;;;;;;;23.45;6.45;;;26.60;60.80;;;;;;4994368;28;20022;-75
2022/01/20 09:36:39;;;;;;;24.95;6.90;;;26.60;60.50;;;;;;5001420;28;20026;-70
2022/01/20 09:39:05;;;;;;;15.82;5.70;;;26.70;60.40;;;;;;4996613;28;20034;-73
2022/01/20 09:41:32;;;;;;;20.92;6.25;;;26.80;60.20;;;;;;4994493;28;20116;-73
2022/01/20 09:43:58;;;;;;;19.65;6.40;;;26.80;60.20;;;;;;4996360;28;20393;-69
2022/01/20 09:46:25;;;;;;;17.60;5.75;;;26.80;59.90;;;;;;4996823;28;20018;-70
2022/01/20 09:48:52;;;;;;;14.25;4.90;;;26.90;59.70;;;;;;4997190;28;20488;-70
2022/01/20 09:51:19;;;;;;;14.95;5.18;;;26.90;59.40;;;;;;4998697;28;20058;-69
2022/01/20 09:53:46;;;;;;;19.08;5.20;;;27.00;59.30;;;;;;4993540;28;20616;-70
2022/01/20 09:56:14;;;;;;;19.85;5.47;;;27.10;59.20;;;;;;4998699;28;20026;-70
2022/01/20 09:58:40;;;;;;;18.38;5.88;;;27.20;59.10;;;;;;4995149;28;20022;-74
2022/01/20 10:01:07;;;;;;;21.58;6.78;;;27.20;59.10;;;;;;4997610;28;20041;-70
2022/01/20 10:03:36;;;;;;;21.50;5.95;;;27.20;59.00;;;;;;4995802;28;20052;-69
2022/01/20 10:06:03;;;;;;;27.83;7.15;;;27.30;58.80;;;;;;4998157;28;20517;-70
2022/01/20 10:08:31;;;;;;;18.60;4.80;;;27.30;59.00;;;;;;5000619;28;20065;-70
2022/01/20 10:11:00;;;;;;;22.02;5.68;;;27.40;58.90;;;;;;4998952;28;20041;-73
2022/01/20 10:13:29;;;;;;;16.92;5.05;;;27.50;58.60;;;;;;5002037;28;20128;-70
2022/01/20 10:16:10;;;;;;;35.47;7.20;;;27.50;58.00;;;;;;5004270;28;20032;-70
2022/01/20 10:18:57;;;;;;;33.50;6.65;;;27.60;58.00;;;;;;4998819;28;20373;-70
2022/01/20 10:21:36;;;;;;;20.92;5.68;;;27.70;58.10;;;;;;4998534;28;20037;-69
2022/01/20 10:24:09;;;;;;;19.17;6.40;;;27.70;58.00;;;;;;5005279;28;20109;-70
2022/01/20 10:26:36;;;;;;;18.58;5.22;;;27.80;58.20;;;;;;5003584;28;20799;-69
2022/01/20 10:29:06;;;;;;;19.05;5.78;;;27.80;57.60;;;;;;5000895;28;20461;-72
2022/01/20 10:31:46;;;;;;;17.83;5.78;;;27.90;57.60;;;;;;5004382;28;20034;-71
2022/01/20 10:34:21;;;;;;;14.90;5.20;;;28.00;57.10;;;;;;5001045;28;20437;-73
2022/01/20 10:36:55;;;;;;;20.92;5.18;;;28.00;56.80;;;;;;4999325;28;20022;-70
2022/01/20 10:39:31;;;;;;;18.42;4.75;;;28.10;56.70;;;;;;4998969;28;20065;-75
2022/01/20 10:42:01;;;;;;;15.65;5.82;;;28.20;56.30;;;;;;5007375;28;20026;-68
2022/01/20 10:44:27;;;;;;;24.77;5.15;;;28.30;56.00;;;;;;4999695;28;20054;-69
2022/01/20 10:46:58;;;;;;;20.20;6.63;;;28.30;55.90;;;;;;5001344;28;20019;-71
2022/01/20 10:49:30;;;;;;;19.05;5.35;;;28.40;55.70;;;;;;4998284;28;20031;-71
2022/01/20 10:52:05;;;;;;;11.23;5.10;;;28.50;55.30;;;;;;4999817;28;20375;-70
2022/01/20 10:54:50;;;;;;;12.52;4.75;;;28.50;55.20;;;;;;5000820;28;20542;-70
2022/01/20 10:57:17;;;;;;;17.48;5.22;;;28.50;55.20;;;;;;5001924;28;20100;-70
2022/01/20 10:59:55;;;;;;;11.90;4.80;;;28.60;55.20;;;;;;5001046;28;20018;-73
2022/01/20 11:02:26;;;;;;;13.95;4.75;;;28.60;55.10;;;;;;5001243;28;20049;-71
2022/01/20 11:04:53;;;;;;;23.52;5.43;;;28.60;55.20;;;;;;5006818;28;20113;-70
2022/01/20 11:07:21;;;;;;;26.88;5.30;;;28.70;55.00;;;;;;4998129;28;20026;-70
2022/01/20 11:09:54;;;;;;;44.28;8.50;;;28.80;55.20;;;;;;5002174;28;21039;-72
2022/01/20 11:12:20;;;;;;;28.65;5.25;;;28.80;55.20;;;;;;5018208;28;20457;-73
2022/01/20 11:14:50;;;;;;;18.65;4.95;;;28.90;55.40;;;;;;4999114;28;20030;-70
2022/01/20 11:17:23;;;;;;;17.95;5.05;;;28.90;55.00;;;;;;4995200;28;20029;-72
2022/01/20 11:19:49;;;;;;;10.98;5.00;;;29.00;54.80;;;;;;4996497;28;20497;-70
2022/01/20 11:22:18;;;;;;;12.15;4.70;;;29.00;54.50;;;;;;5005387;28;20450;-68
2022/01/20 11:24:45;;;;;;;18.90;4.57;;;29.10;54.30;;;;;;4999798;28;20144;-70
2022/01/20 11:27:13;;;;;;;24.40;6.18;;;29.10;54.40;;;;;;4999763;28;20535;-74
2022/01/20 11:29:45;;;;;;;14.85;5.50;;;29.20;54.20;;;;;;4999654;28;20169;-71
2022/01/20 11:32:22;;;;;;;12.63;4.65;;;29.20;53.90;;;;;;5003725;28;20048;-72
2022/01/20 11:35:00;;;;;;;15.80;4.72;;;29.20;53.80;;;;;;4998934;28;20022;-72
2022/01/20 11:37:28;;;;;;;11.88;4.00;;;29.30;53.70;;;;;;4996813;28;20018;-73
2022/01/20 11:40:07;;;;;;;13.77;4.75;;;29.30;53.70;;;;;;4998803;28;20018;-70
2022/01/20 11:42:33;;;;;;;17.00;5.25;;;29.30;53.50;;;;;;5005080;28;20046;-73
2022/01/20 11:45:00;;;;;;;16.77;4.13;;;29.40;53.40;;;;;;4996639;28;20014;-73
2022/01/20 11:47:33;;;;;;;16.50;4.15;;;29.50;53.30;;;;;;4997835;28;20440;-71
2022/01/20 11:50:00;;;;;;;24.20;5.07;;;29.50;53.00;;;;;;4998749;28;20041;-71
2022/01/20 11:52:27;;;;;;;13.50;4.80;;;29.60;52.90;;;;;;5000956;28;20029;-76
2022/01/20 11:54:54;;;;;;;19.30;5.78;;;29.60;52.50;;;;;;4998847;28;20057;-70
2022/01/20 11:57:30;;;;;;;33.90;5.43;;;29.70;52.20;;;;;;4995456;28;20401;-73
2022/01/20 12:00:01;;;;;;;27.52;6.43;;;29.70;52.10;;;;;;4999260;28;20021;-73
2022/01/20 12:02:34;;;;;;;21.58;5.60;;;29.70;51.90;;;;;;4996322;28;20054;-70
2022/01/20 12:05:16;;;;;;;18.42;4.70;;;29.80;51.60;;;;;;4995103;28;20061;-69
2022/01/20 12:07:42;;;;;;;17.20;5.05;;;29.80;50.90;;;;;;4999969;28;20109;-69
2022/01/20 12:10:11;;;;;;;9.50;3.22;;;29.80;50.40;;;;;;5013249;28;21556;-77
2022/01/20 12:12:39;;;;;;;19.02;6.78;;;29.90;50.20;;;;;;5001373;28;20489;-71
2022/01/20 12:15:14;;;;;;;15.85;5.60;;;29.90;50.00;;;;;;4997731;28;20022;-75
2022/01/20 12:17:51;;;;;;;31.95;5.22;;;29.90;49.30;;;;;;4999228;28;20021;-68
2022/01/20 12:20:18;;;;;;;12.82;3.67;;;30.00;49.20;;;;;;4996131;28;20441;-72
2022/01/20 12:22:46;;;;;;;12.68;4.10;;;30.10;49.10;;;;;;4999441;28;20040;-70
2022/01/20 12:25:39;;;;;;;12.90;3.53;;;30.10;49.60;;;;;;4999849;28;20381;-69
2022/01/20 12:28:07;;;;;;;9.43;3.10;;;30.10;48.90;;;;;;4996835;28;20041;-70
2022/01/20 12:30:36;;;;;;;13.00;4.57;;;30.10;48.80;;;;;;4998213;28;20053;-70
2022/01/20 12:33:12;;;;;;;17.70;4.68;;;30.10;48.80;;;;;;5000871;28;20018;-69
2022/01/20 12:35:41;;;;;;;12.27;3.42;;;30.10;48.80;;;;;;4998131;28;20031;-69
2022/01/20 12:38:22;;;;;;;8.27;2.95;;;30.10;48.40;;;;;;4999168;28;20110;-70
2022/01/20 12:41:03;;;;;;;15.07;4.75;;;30.10;48.20;;;;;;5027620;28;20037;-70
2022/01/20 12:43:44;;;;;;;14.23;3.92;;;30.10;48.40;;;;;;4997918;28;20014;-75
2022/01/20 12:46:13;;;;;;;17.15;4.95;;;30.10;48.40;;;;;;4996088;28;20029;-73
2022/01/20 12:49:01;;;;;;;13.93;3.78;;;30.10;48.20;;;;;;5001023;28;20500;-71
2022/01/20 12:51:40;;;;;;;11.32;4.07;;;30.10;48.30;;;;;;4999046;28;20046;-70
2022/01/20 12:54:16;;;;;;;22.38;4.03;;;30.10;48.40;;;;;;5015175;28;20069;-71
2022/01/20 12:56:50;;;;;;;47.90;5.50;;;30.20;48.70;;;;;;4994099;28;20370;-70
2022/01/20 12:59:21;;;;;;;22.10;5.65;;;30.20;48.90;;;;;;4999318;28;20026;-74
2022/01/20 13:01:49;;;;;;;17.20;4.15;;;30.10;48.80;;;;;;4996883;28;20042;-71
2022/01/20 13:04:20;;;;;;;32.92;6.80;;;30.10;49.20;;;;;;4998719;28;20477;-73
2022/01/20 13:07:02;;;;;;;26.20;5.78;;;30.10;49.50;;;;;;5000360;28;20010;-72
2022/01/20 13:09:42;;;;;;;15.30;4.65;;;30.10;49.50;;;;;;5029312;28;20413;-70
2022/01/20 13:12:10;;;;;;;10.02;3.92;;;30.10;49.30;;;;;;4999840;28;20972;-71
2022/01/20 13:14:50;;;;;;;16.75;4.25;;;30.10;48.50;;;;;;4991870;28;20014;-70
2022/01/20 13:17:28;;;;;;;12.13;4.97;;;30.10;49.10;;;;;;4996720;28;20033;-71
2022/01/20 13:19:58;;;;;;;22.75;5.15;;;30.10;48.60;;;;;;4995730;28;20030;-75
2022/01/20 13:22:53;;;;;;;13.80;3.92;;;30.10;49.00;;;;;;4999084;28;20034;-70
2022/01/20 13:25:25;;;;;;;14.98;3.97;;;30.10;48.70;;;;;;4998413;28;20048;-70
2022/01/20 13:27:57;;;;;;;8.77;4.35;;;30.20;48.80;;;;;;5008961;28;20363;-73
2022/01/20 13:30:36;;;;;;;11.00;3.95;;;30.20;48.80;;;;;;5011986;28;20393;-72
2022/01/20 13:33:04;;;;;;;12.13;4.75;;;30.20;48.60;;;;;;4997419;28;20062;-72
2022/01/20 13:35:40;;;;;;;29.83;5.47;;;30.30;48.80;;;;;;4995665;28;20014;-70
2022/01/20 13:38:07;;;;;;;15.15;5.28;;;30.20;48.60;;;;;;4997102;28;20498;-71
2022/01/20 13:40:35;;;;;;;14.60;5.00;;;30.30;48.80;;;;;;5002422;28;20093;-73
2022/01/20 13:46:05;;;;;;;13.30;4.47;;;30.30;48.40;;;;;;5002694;28;20040;-70
2022/01/20 13:48:33;;;;;;;7.68;3.90;;;30.30;48.50;;;;;;4997364;28;20428;-71
2022/01/20 13:51:02;;;;;;;11.68;3.47;;;30.30;48.20;;;;;;5001597;28;20167;-70
2022/01/20 13:53:31;;;;;;;9.00;3.38;;;30.30;48.30;;;;;;5004617;28;20050;-73